Cass City, Michigan
Current Conditions -  °F | °C
As of 1:19 AM on Sunday 26 Oct 2014 (Local Time) from KBAX Reporting Station
Clear Clear  
Wind Chill: 41°   Ceiling: Unl
Heat Index: 46°   Visibility: 10mi
Dew Point: 36°   Wind: 8mph
Humidity: 69%   Direction: 280°W
Pressure: 29.78"   Gusts: NA
Location:  43.6°N, 83.17°W
Report Text: KBAX 260519Z AUTO 28007KT 10SM CLR 08/02 A2978 RMK AO2 T00760022
Loading
Personal Weather Stations






























Interactive Weather Map
Tropical Storm Tracking
New forecast layout! Learn more

10-Day Weather Forecast

Advertisements
Track Severe Weather on mobile